menu

WEBCAM & METEO

METAR LFQA (Reims-Prunay)

LFQA 211130Z AUTO 36013KT 320V060 9999 // NSC 18/11 Q1016

TAF LFQA (Reims-Prunay)

Current TAF unavailable:

METAR LFOK (Chalons-Vatry)

LFOK 211130Z AUTO 35014KT 9999 FEW045 18/08 Q1016 TEMPO 4000 SHRA BKN030TCU

TAF LFOK (Chalons-Vatry)

TAF LFOK 211100Z 2112/2212 33013KT 9999 SCT030 PROB30 TEMPO 2113/2118 4000 SHRA BKN030TCU BECMG 2118/2120 33003KT PROB30 2122/2206 3000 BR